Time;durP1;ratioP1;P1;durP2;ratioP2;P2;SDS_P1;SDS_P2;PMS_P1;PMS_P2;Temp;Humidity;BMP_temperature;BMP_pressure;BME280_temperature;BME280_humidity;BME280_pressure;Samples;Min_cycle;Max_cycle;Signal;HPM_P1;HPM_P2
2021/01/14 00:01:43;;;;;;;0.95;0.00;;;;;;;-0.23;44.28;101484.84;5024757;28;20084;-72
2021/01/14 00:04:09;;;;;;;8.13;0.05;;;;;;;-0.18;44.56;101490.91;5018270;28;20517;-71
2021/01/14 00:06:34;;;;;;;0.98;0.10;;;;;;;0.14;44.12;101499.06;5021732;28;20166;-71
2021/01/14 00:09:00;;;;;;;0.63;0.00;;;;;;;0.19;44.67;101502.56;5019816;28;20053;-71
2021/01/14 00:11:25;;;;;;;6.03;0.40;;;;;;;0.30;45.00;101501.84;5002131;28;20029;-72
2021/01/14 00:13:51;;;;;;;2.38;0.20;;;;;;;-0.00;45.32;101505.72;5024160;28;20060;-71
2021/01/14 00:16:16;;;;;;;0.80;0.20;;;;;;;0.47;44.79;101506.34;5003548;28;20372;-72
2021/01/14 00:18:42;;;;;;;6.93;0.75;;;;;;;0.41;45.01;101516.56;5023663;28;20038;-72
2021/01/14 00:21:08;;;;;;;0.30;0.05;;;;;;;0.01;46.04;101504.88;5022607;28;20045;-73
2021/01/14 00:23:33;;;;;;;5.22;0.22;;;;;;;0.07;45.96;101505.81;5021024;28;20030;-71
2021/01/14 00:25:59;;;;;;;11.27;0.20;;;;;;;0.29;45.95;101516.41;5021458;28;20033;-72
2021/01/14 00:28:24;;;;;;;0.88;0.20;;;;;;;0.09;46.54;101526.41;5012388;28;20053;-73
2021/01/14 00:30:50;;;;;;;1.95;0.20;;;;;;;0.32;45.95;101520.72;5026175;28;20963;-72
2021/01/14 00:33:15;;;;;;;3.80;0.20;;;;;;;0.72;44.99;101523.78;5006695;28;20838;-71
2021/01/14 00:35:41;;;;;;;1.40;0.17;;;;;;;0.58;45.44;101528.75;5023959;28;20566;-72
2021/01/14 00:38:06;;;;;;;7.85;0.40;;;;;;;0.40;46.38;101534.53;5029208;28;20573;-72
2021/01/14 00:40:34;;;;;;;1.20;0.20;;;;;;;0.36;46.23;101537.91;5021322;28;20033;-72
2021/01/14 00:43:08;;;;;;;0.35;0.03;;;;;;;0.44;46.13;101539.75;5021127;28;20025;-71
2021/01/14 00:45:35;;;;;;;2.00;0.25;;;;;;;0.33;45.54;101543.03;5020862;28;20033;-71
2021/01/14 00:48:01;;;;;;;1.60;0.35;;;;;;;0.30;45.74;101543.88;5017760;28;20069;-72
2021/01/14 00:50:29;;;;;;;5.47;0.10;;;;;;;0.42;45.06;101543.16;5020722;28;20029;-72
2021/01/14 00:52:55;;;;;;;8.50;0.28;;;;;;;0.44;45.35;101547.47;5020734;28;20021;-73
2021/01/14 00:55:21;;;;;;;8.25;0.40;;;;;;;0.41;45.71;101551.69;5017404;28;20435;-72
2021/01/14 00:57:47;;;;;;;3.78;0.40;;;;;;;-0.09;47.15;101564.72;5020798;28;20040;-73
2021/01/14 01:00:15;;;;;;;2.63;0.30;;;;;;;0.15;46.55;101559.94;5006852;28;20663;-71
2021/01/14 01:02:45;;;;;;;4.70;0.28;;;;;;;0.48;45.65;101563.81;5021912;28;20037;-71
2021/01/14 01:05:11;;;;;;;4.85;0.40;;;;;;;0.44;45.78;101557.75;5040359;28;20033;-73
2021/01/14 01:07:38;;;;;;;3.53;0.30;;;;;;;0.15;46.06;101570.22;5022959;28;20091;-74
2021/01/14 01:10:06;;;;;;;1.08;0.20;;;;;;;0.61;45.29;101567.38;5019377;28;20088;-72
2021/01/14 01:12:32;;;;;;;2.97;0.50;;;;;;;0.49;46.00;101575.81;5019132;28;20034;-72
2021/01/14 01:14:57;;;;;;;4.82;0.30;;;;;;;0.26;46.95;101584.09;5020043;28;20432;-72
2021/01/14 01:17:23;;;;;;;1.42;0.20;;;;;;;0.72;46.29;101588.97;5018165;28;20030;-70
2021/01/14 01:19:48;;;;;;;3.92;0.30;;;;;;;0.35;47.47;101582.50;5021644;28;20061;-71
2021/01/14 01:22:18;;;;;;;4.90;0.73;;;;;;;0.17;47.34;101586.53;5000849;28;20033;-74
2021/01/14 01:24:43;;;;;;;1.77;0.22;;;;;;;0.37;46.96;101586.81;5035675;28;20694;-72
2021/01/14 01:27:09;;;;;;;2.47;0.25;;;;;;;0.22;47.22;101592.59;5016467;28;20446;-72
2021/01/14 01:29:34;;;;;;;3.25;1.00;;;;;;;0.26;46.59;101594.38;5019908;28;20030;-72
2021/01/14 01:32:00;;;;;;;3.28;0.20;;;;;;;0.44;45.97;101598.03;5022513;28;20053;-71
2021/01/14 01:34:25;;;;;;;1.70;0.20;;;;;;;0.12;46.42;101606.13;5037029;28;20704;-71
2021/01/14 01:36:51;;;;;;;4.57;0.55;;;;;;;0.16;46.57;101610.50;5021952;28;20288;-71
2021/01/14 01:39:17;;;;;;;5.70;0.32;;;;;;;0.68;45.19;101613.81;5020355;28;20029;-71
2021/01/14 01:41:42;;;;;;;1.70;0.20;;;;;;;0.17;47.07;101625.09;5013254;28;20026;-72
2021/01/14 01:44:08;;;;;;;2.28;0.28;;;;;;;0.26;46.97;101617.50;5021702;28;20033;-72
2021/01/14 01:46:34;;;;;;;4.75;0.57;;;;;;;0.22;47.25;101633.72;5023581;28;20061;-71
2021/01/14 01:49:00;;;;;;;2.55;0.52;;;;;;;0.31;47.25;101633.00;5010296;28;20120;-71
2021/01/14 01:51:31;;;;;;;6.63;0.88;;;;;;;0.27;46.96;101642.38;5023649;28;20138;-70
2021/01/14 01:53:58;;;;;;;5.20;0.25;;;;;;;-0.05;47.44;101653.88;5024114;28;20033;-71
2021/01/14 01:56:24;;;;;;;1.83;0.60;;;;;;;0.17;47.27;101658.50;5026580;28;20052;-73
2021/01/14 01:58:55;;;;;;;5.50;0.45;;;;;;;0.06;46.82;101663.47;5016790;28;20034;-72
2021/01/14 02:01:23;;;;;;;3.92;0.45;;;;;;;0.37;46.19;101663.97;5005005;28;20052;-74
2021/01/14 02:03:49;;;;;;;1.55;0.30;;;;;;;0.64;45.40;101670.34;5023546;28;20049;-72
2021/01/14 02:06:14;;;;;;;6.72;0.95;;;;;;;0.43;45.78;101664.03;5023733;28;20060;-71
2021/01/14 02:08:54;;;;;;;4.85;0.63;;;;;;;0.56;45.47;101671.94;5024513;28;20426;-71
2021/01/14 02:11:32;;;;;;;6.95;0.40;;;;;;;0.59;45.34;101674.53;5025090;28;20030;-71
2021/01/14 02:14:01;;;;;;;6.47;1.13;;;;;;;0.57;45.53;101677.13;5021627;28;20045;-72
2021/01/14 02:16:26;;;;;;;2.10;0.40;;;;;;;0.83;45.13;101674.03;5036704;28;20597;-72
2021/01/14 02:18:54;;;;;;;4.57;0.85;;;;;;;0.65;45.65;101680.66;5023083;28;20129;-71
2021/01/14 02:21:24;;;;;;;1.80;0.77;;;;;;;0.71;45.71;101682.47;5020323;28;20079;-71
2021/01/14 02:24:10;;;;;;;10.77;1.00;;;;;;;0.91;45.30;101687.88;5028615;28;20041;-71
2021/01/14 02:26:38;;;;;;;2.05;0.75;;;;;;;0.59;46.58;101679.69;5021583;28;20140;-72
2021/01/14 02:29:05;;;;;;;4.72;0.82;;;;;;;0.48;46.50;101683.00;5027065;28;20108;-72
2021/01/14 02:31:31;;;;;;;4.57;0.82;;;;;;;0.84;45.34;101692.06;5026857;28;20040;-71
2021/01/14 02:33:56;;;;;;;4.45;1.00;;;;;;;1.07;44.92;101689.78;5024160;28;20029;-70
2021/01/14 02:36:24;;;;;;;4.93;0.60;;;;;;;0.55;46.34;101699.38;5027485;28;20032;-70
2021/01/14 02:38:51;;;;;;;1.90;0.77;;;;;;;0.58;46.30;101691.69;5023320;28;20724;-71
2021/01/14 02:41:16;;;;;;;2.70;0.63;;;;;;;0.49;46.33;101695.00;5029565;28;20071;-71
2021/01/14 02:43:45;;;;;;;8.95;0.63;;;;;;;0.54;46.30;101692.50;5012725;28;20475;-73
2021/01/14 02:46:10;;;;;;;5.78;0.98;;;;;;;0.10;47.52;101700.38;5029295;28;20021;-71
2021/01/14 02:49:00;;;;;;;5.35;0.93;;;;;;;0.20;46.88;101707.41;5021093;28;20032;-72
2021/01/14 02:51:47;;;;;;;3.33;1.00;;;;;;;0.04;47.08;101701.13;5021826;28;20041;-71
2021/01/14 02:54:14;;;;;;;2.78;0.68;;;;;;;0.16;46.49;101694.47;5025743;28;20033;-71
2021/01/14 02:56:42;;;;;;;4.35;1.05;;;;;;;0.15;46.27;101708.19;5004792;28;20793;-69
2021/01/14 02:59:09;;;;;;;6.80;0.75;;;;;;;-0.27;47.11;101704.88;5031512;28;20056;-74
2021/01/14 03:01:35;;;;;;;3.20;0.50;;;;;;;-0.06;46.56;101716.38;5026721;28;20624;-74
2021/01/14 03:04:01;;;;;;;2.45;0.60;;;;;;;-0.01;46.67;101713.06;5009318;28;20089;-70
2021/01/14 03:06:26;;;;;;;2.17;0.43;;;;;;;-0.02;46.80;101711.31;5029627;28;20029;-69
2021/01/14 03:08:52;;;;;;;3.45;0.77;;;;;;;-0.03;46.87;101732.72;5029906;28;20030;-71
2021/01/14 03:11:31;;;;;;;4.50;0.82;;;;;;;-0.09;46.85;101724.91;5033274;28;20048;-70
2021/01/14 03:13:57;;;;;;;4.88;0.90;;;;;;;-0.61;48.51;101729.91;5023060;28;20060;-72
2021/01/14 03:16:23;;;;;;;6.05;0.65;;;;;;;-0.42;47.84;101728.56;5038937;28;20479;-71
2021/01/14 03:18:50;;;;;;;3.60;0.73;;;;;;;-0.13;47.01;101733.38;5020153;28;20111;-71
2021/01/14 03:21:23;;;;;;;3.00;1.02;;;;;;;-0.42;48.06;101733.69;5020238;28;20042;-73
2021/01/14 03:23:50;;;;;;;5.63;0.93;;;;;;;-0.42;48.42;101740.53;5012748;28;20037;-71
2021/01/14 03:26:17;;;;;;;6.85;0.75;;;;;;;-0.38;48.43;101735.50;5017294;28;20041;-72
2021/01/14 03:28:43;;;;;;;8.75;1.35;;;;;;;-0.57;49.33;101736.84;5037249;28;20049;-72
2021/01/14 03:31:10;;;;;;;5.45;2.13;;;;;;;-0.37;48.79;101734.69;5026610;28;20033;-71
2021/01/14 03:33:36;;;;;;;6.15;1.30;;;;;;;-0.29;48.83;101739.94;5022233;28;20033;-72
2021/01/14 03:36:05;;;;;;;4.50;1.13;;;;;;;-0.46;49.16;101731.94;5021641;28;20517;-73
2021/01/14 03:38:37;;;;;;;5.85;1.23;;;;;;;-0.35;49.30;101753.56;5019699;28;20112;-72
2021/01/14 03:41:08;;;;;;;9.07;1.60;;;;;;;-0.37;49.42;101744.06;5027473;28;20076;-72
2021/01/14 03:43:33;;;;;;;4.25;1.52;;;;;;;-0.04;48.68;101753.25;5027039;28;20105;-71
2021/01/14 03:45:59;;;;;;;5.60;1.90;;;;;;;-0.20;48.93;101757.25;5021825;28;20131;-71
2021/01/14 03:48:24;;;;;;;5.63;1.20;;;;;;;0.18;48.21;101755.34;5037317;28;20171;-72
2021/01/14 03:50:50;;;;;;;8.38;2.25;;;;;;;0.08;48.48;101763.75;5018703;28;20033;-71
2021/01/14 03:53:15;;;;;;;5.97;1.73;;;;;;;0.28;48.07;101762.41;5018615;28;20021;-72
2021/01/14 03:55:41;;;;;;;7.95;1.60;;;;;;;0.28;48.17;101770.13;5022054;28;20470;-71
2021/01/14 03:58:07;;;;;;;12.10;1.73;;;;;;;0.16;48.40;101777.59;5021506;28;20125;-73
2021/01/14 04:00:32;;;;;;;7.65;2.05;;;;;;;0.35;48.29;101780.50;5026409;28;20029;-73
2021/01/14 04:02:58;;;;;;;5.53;1.45;;;;;;;0.41;48.39;101778.03;5000683;28;20056;-72
2021/01/14 04:05:23;;;;;;;3.78;1.33;;;;;;;0.24;48.75;101777.75;5018417;28;20045;-72
2021/01/14 04:07:49;;;;;;;7.22;1.70;;;;;;;0.24;49.14;101785.47;5015942;28;20845;-74
2021/01/14 04:10:14;;;;;;;9.00;1.50;;;;;;;0.35;48.63;101780.50;5023249;28;20029;-72
2021/01/14 04:12:40;;;;;;;6.88;1.15;;;;;;;0.28;49.11;101777.81;5016034;28;20067;-72
2021/01/14 04:15:06;;;;;;;7.85;1.80;;;;;;;0.19;49.27;101777.66;5016581;28;20121;-72
2021/01/14 04:17:31;;;;;;;4.28;1.75;;;;;;;0.35;48.81;101783.94;5023237;28;20026;-72
2021/01/14 04:19:56;;;;;;;10.70;2.03;;;;;;;0.09;49.16;101786.03;5010628;28;20049;-72
2021/01/14 04:22:22;;;;;;;5.72;1.48;;;;;;;0.23;49.08;101786.28;5017941;28;20617;-71
2021/01/14 04:24:48;;;;;;;9.63;1.23;;;;;;;0.26;48.88;101789.78;5011032;28;20128;-72
2021/01/14 04:27:13;;;;;;;9.00;1.52;;;;;;;0.28;48.51;101794.97;5025203;28;20060;-71
2021/01/14 04:29:39;;;;;;;7.30;1.67;;;;;;;0.05;49.17;101799.69;5024451;28;20399;-72
2021/01/14 04:32:05;;;;;;;9.00;1.73;;;;;;;-0.30;49.87;101801.56;5025794;28;20034;-71
2021/01/14 04:34:30;;;;;;;4.18;1.40;;;;;;;0.24;48.71;101796.59;5021785;28;20064;-72
2021/01/14 04:37:00;;;;;;;10.70;2.35;;;;;;;-0.03;49.48;101796.97;5015632;28;20418;-72
2021/01/14 04:39:26;;;;;;;4.75;1.63;;;;;;;0.01;49.32;101801.34;5035842;28;20511;-73
2021/01/14 04:41:57;;;;;;;4.55;1.20;;;;;;;0.17;49.23;101802.50;5021412;28;20041;-73
2021/01/14 04:44:25;;;;;;;6.30;1.10;;;;;;;0.46;48.24;101808.13;5023636;28;20037;-72
2021/01/14 04:46:57;;;;;;;6.07;1.20;;;;;;;0.26;49.13;101805.22;5017974;28;20072;-72
2021/01/14 04:49:22;;;;;;;10.03;1.53;;;;;;;-0.27;50.59;101802.50;5028875;28;20047;-73
2021/01/14 04:51:51;;;;;;;4.85;1.45;;;;;;;0.19;49.60;101811.09;5042112;28;20279;-72
2021/01/14 04:54:22;;;;;;;5.30;2.55;;;;;;;-0.07;50.14;101817.44;5024384;28;20041;-71
2021/01/14 04:56:53;;;;;;;8.57;2.08;;;;;;;-0.44;51.11;101825.25;5019224;28;20064;-72
2021/01/14 04:59:22;;;;;;;4.47;1.10;;;;;;;-0.06;50.17;101827.75;5022935;28;20033;-73
2021/01/14 05:01:51;;;;;;;8.50;1.52;;;;;;;-0.07;50.14;101832.88;5014855;28;20638;-71
2021/01/14 05:04:21;;;;;;;4.43;1.92;;;;;;;0.01;49.82;101827.03;5020606;28;20043;-72
2021/01/14 05:06:56;;;;;;;10.20;2.70;;;;;;;-0.07;49.93;101831.16;5022406;28;20091;-73
2021/01/14 05:09:24;;;;;;;11.82;1.70;;;;;;;0.17;49.14;101832.47;5026229;28;20026;-71
2021/01/14 05:11:56;;;;;;;3.28;1.77;;;;;;;-0.06;49.71;101837.16;5021750;28;20052;-73
2021/01/14 05:14:22;;;;;;;6.63;1.73;;;;;;;-0.25;50.03;101836.81;5022501;28;20025;-72
2021/01/14 05:16:51;;;;;;;4.35;1.52;;;;;;;-0.17;49.94;101845.53;5036982;28;20041;-73
2021/01/14 05:19:17;;;;;;;4.03;1.30;;;;;;;-0.14;49.98;101840.44;5018087;28;20088;-73
2021/01/14 05:21:45;;;;;;;5.00;1.40;;;;;;;-0.03;49.95;101847.53;5035528;28;20041;-73
2021/01/14 05:24:13;;;;;;;3.28;0.95;;;;;;;-0.15;49.91;101846.44;5004321;28;20065;-72
2021/01/14 05:26:43;;;;;;;8.18;1.27;;;;;;;-0.07;50.00;101850.88;5016517;28;20029;-73
2021/01/14 05:29:20;;;;;;;10.35;2.65;;;;;;;0.06;49.53;101856.28;5018031;28;20021;-72
2021/01/14 05:31:48;;;;;;;4.18;2.00;;;;;;;0.23;48.94;101855.72;5023232;28;20965;-72
2021/01/14 05:34:14;;;;;;;9.93;1.58;;;;;;;-0.25;50.47;101859.94;5019950;28;20214;-72
2021/01/14 05:37:05;;;;;;;6.78;1.45;;;;;;;-0.01;49.70;101856.13;5004297;28;20036;-74
2021/01/14 05:39:41;;;;;;;6.97;1.88;;;;;;;0.07;49.68;101864.84;5006459;28;20045;-72
2021/01/14 05:42:10;;;;;;;5.72;1.20;;;;;;;-0.27;50.16;101871.88;5016896;28;20029;-71
2021/01/14 05:44:39;;;;;;;6.65;1.63;;;;;;;-0.22;50.19;101867.69;5022122;28;20108;-73
2021/01/14 05:47:18;;;;;;;6.70;1.75;;;;;;;-0.28;50.17;101865.00;5021680;28;20034;-72
2021/01/14 05:49:59;;;;;;;8.10;1.80;;;;;;;-0.23;50.15;101865.09;5020008;28;20034;-71
2021/01/14 05:52:27;;;;;;;7.32;1.52;;;;;;;-0.65;51.22;101876.19;5023188;28;20159;-73
2021/01/14 05:55:15;;;;;;;6.25;1.48;;;;;;;-0.25;50.14;101883.06;5019750;28;20499;-72
2021/01/14 05:58:01;;;;;;;8.60;2.22;;;;;;;-0.47;50.65;101881.72;5027468;28;20124;-72
2021/01/14 06:00:33;;;;;;;8.07;1.42;;;;;;;-0.25;50.14;101884.75;5019225;28;20056;-73
2021/01/14 06:03:01;;;;;;;8.45;1.40;;;;;;;-0.66;51.26;101874.44;5016149;28;20037;-72
2021/01/14 06:05:28;;;;;;;12.18;1.55;;;;;;;-0.25;50.06;101883.06;5006160;28;20037;-73
2021/01/14 06:07:54;;;;;;;8.25;1.38;;;;;;;-0.37;50.24;101882.78;5014502;28;20034;-72
2021/01/14 06:10:30;;;;;;;11.35;2.50;;;;;;;-0.47;50.71;101892.00;5017970;28;20441;-71
2021/01/14 06:12:56;;;;;;;13.27;1.98;;;;;;;-0.52;50.83;101892.75;5020529;28;20109;-72
2021/01/14 06:15:21;;;;;;;4.75;1.55;;;;;;;-0.46;50.72;101898.00;5019263;28;20133;-72
2021/01/14 06:17:48;;;;;;;6.55;1.90;;;;;;;-0.50;50.86;101891.94;5019853;28;20034;-72
2021/01/14 06:20:13;;;;;;;7.60;1.92;;;;;;;-0.50;50.84;101903.88;4998400;28;20041;-72
2021/01/14 06:22:39;;;;;;;9.30;2.55;;;;;;;-0.84;51.41;101897.97;5021331;28;20037;-73
2021/01/14 06:25:06;;;;;;;5.93;1.90;;;;;;;-0.51;50.70;101913.28;5018220;28;20037;-73
2021/01/14 06:27:32;;;;;;;4.40;1.40;;;;;;;-0.64;51.13;101906.16;5016420;28;20026;-73
2021/01/14 06:30:06;;;;;;;4.18;1.17;;;;;;;-0.50;50.91;101912.47;5023098;28;20068;-72
2021/01/14 06:32:37;;;;;;;5.88;1.35;;;;;;;-0.58;51.04;101914.84;5008012;28;20041;-72
2021/01/14 06:35:05;;;;;;;9.50;1.90;;;;;;;-0.50;50.67;101920.19;5020630;28;20033;-72
2021/01/14 06:37:37;;;;;;;5.63;1.67;;;;;;;-0.53;50.51;101917.53;5035198;28;20132;-72
2021/01/14 06:40:03;;;;;;;;;;;;;;;-0.54;50.64;101920.94;5034729;28;20113;-71
2021/01/14 06:42:36;;;;;;;8.88;1.65;;;;;;;-0.63;50.92;101921.59;5005109;28;20022;-72
2021/01/14 06:45:04;;;;;;;16.70;1.92;;;;;;;-0.65;51.23;101925.81;5016830;28;20026;-72
2021/01/14 06:47:41;;;;;;;8.85;2.08;;;;;;;-0.37;50.54;101937.63;5016508;28;20121;-72
2021/01/14 06:50:18;;;;;;;9.60;2.03;;;;;;;-0.36;50.56;101935.91;5035201;28;20037;-72
2021/01/14 06:52:59;;;;;;;3.65;1.40;;;;;;;-0.48;50.82;101943.31;5009437;28;20076;-73
2021/01/14 06:55:25;;;;;;;5.25;1.92;;;;;;;-0.15;50.01;101948.34;5025660;28;20518;-71
2021/01/14 06:58:08;;;;;;;10.40;1.88;;;;;;;-0.57;50.88;101942.28;5008077;28;20479;-71
2021/01/14 07:00:39;;;;;;;5.95;1.73;;;;;;;-0.33;50.34;101951.38;5025539;28;20033;-73
2021/01/14 07:03:14;;;;;;;11.52;1.73;;;;;;;-0.38;50.18;101953.84;5007902;28;20171;-73
2021/01/14 07:05:51;;;;;;;7.05;1.55;;;;;;;-0.45;50.46;101951.97;5033254;28;20034;-71
2021/01/14 07:08:32;;;;;;;8.10;1.33;;;;;;;-0.42;50.37;101953.75;5034583;28;20034;-71
2021/01/14 07:11:10;;;;;;;4.50;1.38;;;;;;;-0.46;50.48;101959.63;5030336;28;20526;-71
2021/01/14 07:13:44;;;;;;;5.13;2.03;;;;;;;-0.56;50.84;101968.84;5012456;28;20030;-72
2021/01/14 07:16:13;;;;;;;16.17;1.73;;;;;;;-0.63;50.90;101974.66;5020945;28;20052;-72
2021/01/14 07:18:39;;;;;;;3.72;1.48;;;;;;;-0.60;50.58;101977.28;5023442;28;20045;-72
2021/01/14 07:21:17;;;;;;;5.15;1.90;;;;;;;-0.79;51.32;101986.25;5012374;28;20536;-71
2021/01/14 07:23:50;;;;;;;14.82;2.35;;;;;;;-0.72;50.80;101988.13;5022037;28;20103;-72
2021/01/14 07:26:16;;;;;;;12.38;2.38;;;;;;;-0.77;51.00;101984.59;5022989;28;20044;-71
2021/01/14 07:28:42;;;;;;;7.22;1.90;;;;;;;-0.74;50.97;101994.06;5028082;28;20079;-71
2021/01/14 07:31:25;;;;;;;7.43;1.92;;;;;;;-0.67;50.57;101999.38;5021925;28;20652;-72
2021/01/14 07:33:53;;;;;;;6.50;2.22;;;;;;;-0.78;50.81;102005.94;5022972;28;20506;-71
2021/01/14 07:36:26;;;;;;;3.50;1.75;;;;;;;-0.74;50.46;102000.06;5026944;28;20037;-71
2021/01/14 07:38:59;;;;;;;3.28;2.20;;;;;;;-0.80;50.52;102005.03;5037145;28;20090;-72
2021/01/14 07:41:25;;;;;;;4.70;1.63;;;;;;;-0.89;50.78;102004.81;5018059;28;20483;-70
2021/01/14 07:43:51;;;;;;;9.70;2.47;;;;;;;-0.97;51.21;102008.06;5020377;28;20068;-71
2021/01/14 07:46:22;;;;;;;13.40;2.90;;;;;;;-0.95;50.98;102007.22;5038193;28;20627;-72
2021/01/14 07:48:52;;;;;;;8.15;1.98;;;;;;;-0.93;50.86;102015.81;5022060;28;20057;-72
2021/01/14 07:51:19;;;;;;;10.15;2.33;;;;;;;-0.81;50.33;102013.59;5020753;28;20454;-70
2021/01/14 07:54:07;;;;;;;7.82;1.60;;;;;;;-0.82;50.31;102022.09;5019690;28;20083;-71
2021/01/14 07:56:45;;;;;;;8.02;2.05;;;;;;;-0.80;50.45;102025.56;5022254;28;20075;-73
2021/01/14 07:59:13;;;;;;;4.78;1.88;;;;;;;-0.80;50.34;102020.44;5020602;28;20077;-71
2021/01/14 08:01:58;;;;;;;6.18;2.30;;;;;;;-0.81;50.17;102034.13;5020373;28;20033;-74
2021/01/14 08:04:24;;;;;;;15.40;4.30;;;;;;;-0.82;50.34;102028.09;5027173;28;20076;-72
2021/01/14 08:06:49;;;;;;;15.23;4.85;;;;;;;-0.69;50.00;102039.56;5027041;28;20033;-70
2021/01/14 08:09:15;;;;;;;7.55;2.88;;;;;;;-0.78;50.40;102039.31;5023274;28;20470;-71
2021/01/14 08:11:46;;;;;;;9.75;3.00;;;;;;;-0.68;50.07;102043.88;5023708;28;20037;-72
2021/01/14 08:14:16;;;;;;;8.63;2.80;;;;;;;-0.54;49.64;102045.91;5024829;28;20029;-70
2021/01/14 08:16:50;;;;;;;5.80;2.05;;;;;;;-0.53;49.48;102050.22;5020496;28;20307;-70
2021/01/14 08:19:32;;;;;;;7.78;2.38;;;;;;;-0.62;49.53;102051.72;5024688;28;20029;-73
2021/01/14 08:21:58;;;;;;;6.28;2.05;;;;;;;-0.57;49.55;102055.28;5019162;28;20121;-71
2021/01/14 08:24:53;;;;;;;11.40;2.75;;;;;;;-0.45;49.29;102053.84;5023841;28;20118;-71
2021/01/14 08:27:21;;;;;;;3.55;1.65;;;;;;;-0.10;48.23;102053.81;5020360;28;20037;-70
2021/01/14 08:29:54;;;;;;;9.98;2.00;;;;;;;0.66;47.23;102062.34;5017045;28;20036;-70
2021/01/14 08:32:37;;;;;;;3.50;1.42;;;;;;;1.68;44.63;102057.34;5019894;28;20038;-71
2021/01/14 08:35:16;;;;;;;7.78;2.22;;;;;;;2.07;43.12;102051.94;5009356;28;20040;-72
2021/01/14 08:37:54;;;;;;;4.93;1.45;;;;;;;2.24;41.95;102054.75;5026005;28;20133;-75
2021/01/14 08:40:22;;;;;;;7.45;1.35;;;;;;;1.43;43.64;102064.66;5026484;28;20037;-74
2021/01/14 08:42:59;;;;;;;4.15;1.55;;;;;;;1.20;43.86;102076.25;5025020;28;20045;-71
2021/01/14 08:45:28;;;;;;;4.97;2.10;;;;;;;1.01;45.34;102083.59;5040594;28;20085;-71
2021/01/14 08:48:20;;;;;;;12.98;3.15;;;;;;;0.73;45.80;102089.06;5012723;28;20032;-74
2021/01/14 08:50:50;;;;;;;14.80;5.65;;;;;;;0.52;46.45;102089.47;5011443;28;20060;-71
2021/01/14 08:53:18;;;;;;;3.13;1.80;;;;;;;0.63;46.29;102096.56;5015748;28;20037;-73
2021/01/14 08:55:52;;;;;;;4.78;2.35;;;;;;;0.55;46.94;102099.84;5023078;28;20046;-71
2021/01/14 08:58:30;;;;;;;5.80;1.48;;;;;;;0.83;46.75;102098.69;5030127;28;20030;-72
2021/01/14 09:00:56;;;;;;;6.03;1.67;;;;;;;1.70;45.28;102084.00;5019338;28;20041;-74
2021/01/14 09:03:26;;;;;;;3.70;1.85;;;;;;;2.51;42.24;102089.47;5023176;28;20034;-71
2021/01/14 09:05:52;;;;;;;4.75;2.50;;;;;;;2.81;41.63;102085.56;5022681;28;20495;-72
2021/01/14 09:08:18;;;;;;;5.10;1.58;;;;;;;3.38;40.46;102089.63;5037973;28;20038;-71
2021/01/14 09:10:49;;;;;;;6.80;1.52;;;;;;;3.74;39.54;102090.84;5025363;28;20037;-71
2021/01/14 09:13:17;;;;;;;3.90;1.10;;;;;;;3.82;39.47;102096.91;5021721;28;20124;-72
2021/01/14 09:15:43;;;;;;;1.85;1.10;;;;;;;3.74;40.12;102099.47;5015835;28;20030;-73
2021/01/14 09:18:10;;;;;;;5.70;1.48;;;;;;;3.67;39.54;102097.69;5019723;28;20048;-72
2021/01/14 09:20:36;;;;;;;4.07;2.25;;;;;;;3.60;39.66;102106.22;5017527;28;20643;-71
2021/01/14 09:23:21;;;;;;;3.15;1.67;;;;;;;3.55;40.12;102107.91;5020163;28;20041;-71
2021/01/14 09:25:49;;;;;;;14.02;2.72;;;;;;;3.67;39.65;102107.13;5018826;28;20042;-71
2021/01/14 09:28:15;;;;;;;4.65;1.88;;;;;;;3.80;40.12;102108.97;5017128;28;20038;-74
2021/01/14 09:30:42;;;;;;;4.38;1.70;;;;;;;3.65;39.71;102119.19;5015980;28;20479;-72
2021/01/14 09:33:08;;;;;;;7.55;2.00;;;;;;;3.55;39.89;102119.09;5017583;28;20554;-71
2021/01/14 09:35:33;;;;;;;3.42;1.77;;;;;;;3.51;40.41;102124.22;5015678;28;20120;-71
2021/01/14 09:37:59;;;;;;;5.85;1.50;;;;;;;3.91;39.30;102135.78;5019023;28;20120;-71
2021/01/14 09:40:25;;;;;;;8.35;1.70;;;;;;;3.74;40.01;102133.06;5025178;28;20038;-71
2021/01/14 09:42:51;;;;;;;5.85;2.20;;;;;;;3.99;39.67;102136.72;5021133;28;20036;-71
2021/01/14 09:45:18;;;;;;;5.93;1.95;;;;;;;4.15;39.18;102137.69;5024374;28;20040;-71
2021/01/14 09:47:49;;;;;;;8.88;2.58;;;;;;;4.20;38.88;102135.13;5023946;28;20175;-71
2021/01/14 09:50:15;;;;;;;5.95;1.98;;;;;;;4.38;38.68;102135.25;5019383;28;20026;-72
2021/01/14 09:52:41;;;;;;;4.00;2.70;;;;;;;4.39;38.47;102141.31;5028237;28;20100;-73
2021/01/14 09:55:13;;;;;;;4.85;1.67;;;;;;;4.02;39.10;102147.09;5025474;28;20547;-71
2021/01/14 09:57:46;;;;;;;3.63;0.90;;;;;;;3.84;39.32;102148.66;5021418;28;20581;-71
2021/01/14 10:00:17;;;;;;;12.45;1.88;;;;;;;4.08;39.25;102153.19;5021837;28;20364;-71
2021/01/14 10:02:46;;;;;;;6.07;1.97;;;;;;;3.73;39.79;102151.16;5020284;28;20021;-72
2021/01/14 10:05:15;;;;;;;8.02;1.40;;;;;;;4.52;38.92;102156.06;5022189;28;20131;-72
2021/01/14 10:07:45;;;;;;;13.27;2.67;;;;;;;4.74;37.34;102154.44;5026031;28;20211;-72
2021/01/14 10:10:11;;;;;;;2.78;1.77;;;;;;;4.68;38.20;102159.59;5006308;28;20033;-72
2021/01/14 10:12:37;;;;;;;5.32;1.40;;;;;;;4.43;38.17;102162.06;4995772;28;20025;-72
2021/01/14 10:15:08;;;;;;;3.40;2.17;;;;;;;4.17;39.08;102156.69;5025861;28;20063;-72
2021/01/14 10:17:37;;;;;;;7.28;1.98;;;;;;;4.23;38.56;102150.72;5016568;28;20026;-72
2021/01/14 10:20:03;;;;;;;3.28;1.52;;;;;;;4.01;38.89;102160.03;5022528;28;20096;-72
2021/01/14 10:22:29;;;;;;;4.07;1.58;;;;;;;4.34;38.32;102162.00;5025271;28;20327;-72
2021/01/14 10:25:08;;;;;;;4.85;1.73;;;;;;;4.09;39.52;102162.66;5022396;28;20554;-71
2021/01/14 10:27:35;;;;;;;4.75;1.80;;;;;;;4.46;39.21;102157.75;5025577;28;20104;-71
2021/01/14 10:30:22;;;;;;;4.75;1.70;;;;;;;4.59;38.60;102169.91;5025586;28;20034;-71
2021/01/14 10:32:48;;;;;;;5.40;1.45;;;;;;;4.51;38.50;102166.41;5012118;28;20037;-71
2021/01/14 10:35:27;;;;;;;7.13;1.42;;;;;;;4.46;38.28;102162.94;5026377;28;20029;-71
2021/01/14 10:38:13;;;;;;;4.20;1.65;;;;;;;4.59;38.34;102159.56;5022300;28;20033;-71
2021/01/14 10:40:46;;;;;;;12.52;1.45;;;;;;;4.24;38.26;102167.94;5004874;28;20041;-71
2021/01/14 10:43:15;;;;;;;2.45;1.38;;;;;;;4.27;38.09;102167.97;5040481;28;20486;-71
2021/01/14 10:45:42;;;;;;;6.35;1.83;;;;;;;4.38;38.50;102160.28;5024970;28;20108;-72
2021/01/14 10:48:10;;;;;;;3.78;1.60;;;;;;;4.10;38.78;102154.91;5026814;28;20383;-71
2021/01/14 10:50:47;;;;;;;7.07;1.95;;;;;;;4.00;39.07;102159.13;5025488;28;20095;-71
2021/01/14 10:53:24;;;;;;;4.57;1.75;;;;;;;3.61;40.43;102149.34;5022205;28;20426;-71
2021/01/14 10:56:00;;;;;;;6.97;1.70;;;;;;;3.69;39.71;102162.31;5025314;28;20037;-71
2021/01/14 10:58:26;;;;;;;5.80;1.70;;;;;;;3.70;40.25;102164.06;5024397;28;20747;-71
2021/01/14 11:00:51;;;;;;;6.78;2.33;;;;;;;3.79;40.18;102159.84;5026919;28;20041;-71
2021/01/14 11:03:21;;;;;;;10.88;1.30;;;;;;;3.52;40.35;102164.75;5026018;28;20037;-71
2021/01/14 11:05:52;;;;;;;4.30;1.85;;;;;;;3.16;40.62;102177.25;5018726;28;20117;-73
2021/01/14 11:08:36;;;;;;;7.68;2.47;;;;;;;3.12;40.85;102170.31;5008144;28;20120;-72
2021/01/14 11:11:10;;;;;;;4.88;2.00;;;;;;;3.51;40.38;102174.19;5027910;28;20043;-73
2021/01/14 11:13:46;;;;;;;3.83;1.80;;;;;;;3.27;40.07;102179.97;5027827;28;20041;-74
2021/01/14 11:16:13;;;;;;;2.72;1.70;;;;;;;2.98;40.34;102172.72;5027562;28;20116;-74
2021/01/14 11:18:43;;;;;;;2.47;1.42;;;;;;;2.72;41.17;102185.28;5011080;28;20084;-73
2021/01/14 11:21:10;;;;;;;6.32;2.17;;;;;;;2.42;41.51;102184.84;5023403;28;20034;-73
2021/01/14 11:23:37;;;;;;;14.55;1.85;;;;;;;2.55;41.19;102181.59;5028593;28;20061;-74
2021/01/14 11:26:03;;;;;;;6.35;2.83;;;;;;;2.58;41.64;102176.50;5026649;28;20108;-73
2021/01/14 11:28:38;;;;;;;6.68;1.67;;;;;;;3.07;40.32;102187.47;5012223;28;20038;-74
2021/01/14 11:31:05;;;;;;;5.15;1.75;;;;;;;3.26;39.79;102182.53;5029092;28;20490;-71
2021/01/14 11:33:30;;;;;;;2.38;1.40;;;;;;;3.62;39.86;102176.91;5019204;28;20052;-72
2021/01/14 11:35:56;;;;;;;2.45;1.17;;;;;;;3.43;39.75;102165.53;5021478;28;20037;-71
2021/01/14 11:38:22;;;;;;;4.95;1.45;;;;;;;3.50;39.41;102175.06;5012280;28;20018;-72
2021/01/14 11:40:49;;;;;;;3.33;1.23;;;;;;;3.03;39.80;102175.38;5009002;28;20048;-74